Terminal Aerodrome Forecast
Issued by NWS

Current Version | Previous Version | Text Only | Print | Product List | Glossary Off
Versions: 1 2 3 4 5 6 7 8 9 10 11 12 13 14 15 16 17 18 19 20 21 22 23 24 25

000
FTUS41 KPBZ 151400 AAA
TAFHLG
TAF AMD
KHLG 151459Z 1515/1612 VRB03KT 4SM BR OVC008
     FM151600 14005KT 5SM BR BKN010
     FM151800 13005KT P6SM BKN020
     FM160100 09004KT P6SM BKN250
     FM160800 13007KT 5SM -SHRA OVC030=

USA.gov is the U.S. government's official web portal to all federal, state and local government web resources and services.